UAL269 KLAX-KLAS
Flight info
| Callsign | UAL269 |
|---|---|
| Flight time | N/A |
| Altitude | 29000 |
| Route | ORCKA5 MISEN RNDRZ4 |
| Aircraft | A320/M-SDE3FGHIRWY/LB1 |
Departure
| Time | 2026-04-25 20:50 |
|---|---|
| Airport | Los Angeles International Airport (KLAX) |
Arrival
| Time | N/A |
|---|---|
| Airport | Harry Reid International Airport (KLAS) |
| Time | Latitude | Longitude | Altitude | Speed | Heading |
|---|---|---|---|---|---|
| 2026-04-25 20:27 | 33.94169 | -118.39765 | 95 ft | 0 kts | 83° |
| 2026-04-25 20:40 | 33.94169 | -118.39766 | 95 ft | 2 kts | 83° |
| 2026-04-25 20:40 | 33.94166 | -118.39796 | 95 ft | 4 kts | 83° |
| 2026-04-25 20:41 | 33.94164 | -118.39821 | 95 ft | 4 kts | 103° |
| 2026-04-25 20:41 | 33.94177 | -118.39838 | 95 ft | 2 kts | 173° |
| 2026-04-25 20:41 | 33.94163 | -118.39836 | 95 ft | 4 kts | 173° |
| 2026-04-25 20:41 | 33.94142 | -118.39833 | 95 ft | 0 kts | 173° |
| 2026-04-25 20:43 | 33.94133 | -118.39831 | 95 ft | 2 kts | 173° |
| 2026-04-25 20:44 | 33.94107 | -118.39828 | 95 ft | 5 kts | 173° |
| 2026-04-25 20:44 | 33.94069 | -118.39827 | 98 ft | 6 kts | 181° |
| 2026-04-25 20:44 | 33.94047 | -118.39827 | 96 ft | 0 kts | 178° |
| 2026-04-25 20:45 | 33.94014 | -118.39824 | 98 ft | 14 kts | 173° |
| 2026-04-25 20:45 | 33.93917 | -118.39755 | 102 ft | 15 kts | 109° |
| 2026-04-25 20:45 | 33.93917 | -118.39620 | 103 ft | 19 kts | 82° |
| 2026-04-25 20:46 | 33.93934 | -118.39459 | 102 ft | 18 kts | 82° |
| 2026-04-25 20:46 | 33.93949 | -118.39317 | 101 ft | 18 kts | 83° |
| 2026-04-25 20:46 | 33.93965 | -118.39158 | 101 ft | 20 kts | 83° |
| 2026-04-25 20:46 | 33.93984 | -118.38984 | 101 ft | 20 kts | 82° |
| 2026-04-25 20:47 | 33.94000 | -118.38827 | 102 ft | 17 kts | 82° |
| 2026-04-25 20:47 | 33.94014 | -118.38690 | 102 ft | 17 kts | 80° |
| 2026-04-25 20:47 | 33.94029 | -118.38545 | 102 ft | 19 kts | 79° |
| 2026-04-25 20:47 | 33.94045 | -118.38386 | 103 ft | 18 kts | 83° |
| 2026-04-25 20:48 | 33.94059 | -118.38240 | 103 ft | 17 kts | 81° |
| 2026-04-25 20:48 | 33.94073 | -118.38105 | 103 ft | 15 kts | 84° |
| 2026-04-25 20:48 | 33.94075 | -118.38023 | 103 ft | 4 kts | 110° |
| 2026-04-25 20:48 | 33.94074 | -118.38021 | 103 ft | 0 kts | 112° |
| 2026-04-25 20:49 | 33.94072 | -118.38020 | 103 ft | 1 kts | 132° |
| 2026-04-25 20:49 | 33.94039 | -118.37999 | 107 ft | 12 kts | 163° |
| 2026-04-25 20:49 | 33.93983 | -118.38054 | 109 ft | 12 kts | 259° |
| 2026-04-25 20:49 | 33.93977 | -118.38110 | 110 ft | 6 kts | 263° |
| 2026-04-25 20:50 | 33.93933 | -118.38530 | 110 ft | 98 kts | 261° |
| 2026-04-25 20:50 | 33.93804 | -118.39615 | 240 ft | 153 kts | 252° |
| 2026-04-25 20:50 | 33.93660 | -118.40956 | 979 ft | 170 kts | 263° |
| 2026-04-25 20:50 | 33.93645 | -118.42377 | 1901 ft | 169 kts | 265° |
| 2026-04-25 20:51 | 33.93544 | -118.43854 | 2372 ft | 188 kts | 261° |
| 2026-04-25 20:51 | 33.93329 | -118.45493 | 2759 ft | 208 kts | 254° |
| 2026-04-25 20:51 | 33.92848 | -118.47230 | 3211 ft | 229 kts | 248° |
| 2026-04-25 20:51 | 33.92236 | -118.49104 | 3765 ft | 250 kts | 247° |
| 2026-04-25 20:52 | 33.91575 | -118.51086 | 4591 ft | 261 kts | 247° |
| 2026-04-25 20:52 | 33.91118 | -118.52442 | 4837 ft | 265 kts | 247° |
| 2026-04-25 20:52 | 33.90007 | -118.55052 | 5642 ft | 267 kts | 230° |
| 2026-04-25 20:52 | 33.88506 | -118.56357 | 6644 ft | 272 kts | 203° |
| 2026-04-25 20:53 | 33.86629 | -118.56695 | 7571 ft | 279 kts | 176° |
| 2026-04-25 20:53 | 33.84783 | -118.55962 | 8517 ft | 286 kts | 150° |
| 2026-04-25 20:53 | 33.83347 | -118.54280 | 9443 ft | 295 kts | 124° |
| 2026-04-25 20:53 | 33.82584 | -118.51964 | 10280 ft | 304 kts | 102° |
| 2026-04-25 20:54 | 33.82578 | -118.49328 | 10657 ft | 331 kts | 79° |
| 2026-04-25 20:54 | 33.83528 | -118.46710 | 10894 ft | 357 kts | 53° |
| 2026-04-25 20:54 | 33.85378 | -118.44639 | 11278 ft | 371 kts | 37° |
| 2026-04-25 20:54 | 33.91913 | -118.38504 | 13179 ft | 397 kts | 37° |
| 2026-04-25 20:55 | 33.95259 | -118.35327 | 14099 ft | 410 kts | 37° |
| 2026-04-25 20:55 | 34.03300 | -118.25637 | 16754 ft | 422 kts | 57° |
| 2026-04-25 20:55 | 34.10025 | -118.13740 | 19243 ft | 436 kts | 56° |
| 2026-04-25 20:55 | 34.17034 | -118.01337 | 21557 ft | 457 kts | 57° |
| 2026-04-25 20:56 | 34.24327 | -117.88347 | 23601 ft | 477 kts | 57° |
| 2026-04-25 20:56 | 34.31867 | -117.74906 | 25262 ft | 490 kts | 56° |
| 2026-04-25 20:56 | 34.39714 | -117.61209 | 26783 ft | 501 kts | 54° |
| 2026-04-25 20:56 | 34.48048 | -117.47468 | 28259 ft | 511 kts | 54° |
| 2026-04-25 20:57 | 34.55301 | -117.35215 | 28817 ft | 515 kts | 54° |
| 2026-04-25 20:57 | 34.57369 | -117.31708 | 28930 ft | 509 kts | 54° |
| 2026-04-25 20:57 | 34.63745 | -117.20926 | 28906 ft | 508 kts | 54° |
| 2026-04-25 20:58 | 34.80162 | -116.93011 | 28790 ft | 506 kts | 54° |
| 2026-04-25 20:58 | 34.93857 | -116.69545 | 28602 ft | 509 kts | 54° |
| 2026-04-25 20:59 | 34.95864 | -116.66015 | 28808 ft | 506 kts | 54° |
| 2026-04-25 20:59 | 35.01210 | -116.56478 | 28873 ft | 510 kts | 55° |
| 2026-04-25 20:59 | 35.09609 | -116.41530 | 28320 ft | 508 kts | 52° |
| 2026-04-25 21:00 | 35.11898 | -116.38200 | 26844 ft | 517 kts | 44° |
| 2026-04-25 21:00 | 35.12746 | -116.37126 | 26548 ft | 517 kts | 44° |
| 2026-04-25 21:00 | 35.19117 | -116.28960 | 25487 ft | 488 kts | 45° |
| 2026-04-25 21:01 | 35.21431 | -116.25953 | 24879 ft | 483 kts | 45° |
| 2026-04-25 21:01 | 35.23716 | -116.22963 | 24305 ft | 479 kts | 46° |